sensor_id;sensor_type;location;lat;lon;timestamp;pressure;altitude;pressure_sealevel;temperature;humidity
36092;BME280;22147;52.388;13.390;2022-08-03T00:02:17;101138.25;;;16.51;88.47
36092;BME280;22147;52.388;13.390;2022-08-03T00:04:44;101135.53;;;16.55;88.85
36092;BME280;22147;52.388;13.390;2022-08-03T00:07:12;101132.72;;;16.55;88.47
36092;BME280;22147;52.388;13.390;2022-08-03T00:09:39;101131.56;;;16.56;89.38
36092;BME280;22147;52.388;13.390;2022-08-03T00:12:08;101130.38;;;16.57;89.20
36092;BME280;22147;52.388;13.390;2022-08-03T00:14:39;101133.16;;;16.57;89.53
36092;BME280;22147;52.388;13.390;2022-08-03T00:17:07;101132.09;;;16.61;89.28
36092;BME280;22147;52.388;13.390;2022-08-03T00:19:34;101127.41;;;16.65;88.79
36092;BME280;22147;52.388;13.390;2022-08-03T00:22:02;101122.63;;;16.66;89.47
36092;BME280;22147;52.388;13.390;2022-08-03T00:24:29;101120.53;;;16.63;89.55
36092;BME280;22147;52.388;13.390;2022-08-03T00:26:56;101118.69;;;16.55;89.59
36092;BME280;22147;52.388;13.390;2022-08-03T00:29:24;101120.50;;;16.47;89.03
36092;BME280;22147;52.388;13.390;2022-08-03T00:31:51;101119.22;;;16.44;89.06
36092;BME280;22147;52.388;13.390;2022-08-03T00:34:26;101122.28;;;16.39;90.21
36092;BME280;22147;52.388;13.390;2022-08-03T00:37:13;101114.41;;;16.29;89.63
36092;BME280;22147;52.388;13.390;2022-08-03T00:39:42;101111.13;;;16.27;90.35
36092;BME280;22147;52.388;13.390;2022-08-03T00:42:13;101107.41;;;16.23;90.39
36092;BME280;22147;52.388;13.390;2022-08-03T00:44:44;101109.41;;;16.22;90.40
36092;BME280;22147;52.388;13.390;2022-08-03T00:47:12;101107.06;;;16.24;91.10
36092;BME280;22147;52.388;13.390;2022-08-03T00:49:39;101109.69;;;16.17;89.79
36092;BME280;22147;52.388;13.390;2022-08-03T00:52:12;101106.78;;;16.14;89.72
36092;BME280;22147;52.388;13.390;2022-08-03T00:54:42;101103.06;;;16.10;91.02
36092;BME280;22147;52.388;13.390;2022-08-03T00:57:09;101096.38;;;16.14;90.74
36092;BME280;22147;52.388;13.390;2022-08-03T00:59:36;101097.63;;;16.17;90.48
36092;BME280;22147;52.388;13.390;2022-08-03T01:02:04;101102.09;;;16.18;90.67
36092;BME280;22147;52.388;13.390;2022-08-03T01:04:32;101100.81;;;16.15;91.50
36092;BME280;22147;52.388;13.390;2022-08-03T01:17:04;101103.41;;;16.36;90.58
36092;BME280;22147;52.388;13.390;2022-08-03T01:20:07;101099.13;;;16.42;90.62
36092;BME280;22147;52.388;13.390;2022-08-03T01:29:58;101082.53;;;16.49;90.44
36092;BME280;22147;52.388;13.390;2022-08-03T01:32:51;101083.09;;;16.55;88.97
36092;BME280;22147;52.388;13.390;2022-08-03T01:35:35;101084.25;;;16.54;89.79
36092;BME280;22147;52.388;13.390;2022-08-03T01:38:33;101085.50;;;16.57;90.19
36092;BME280;22147;52.388;13.390;2022-08-03T01:41:11;101082.81;;;16.60;90.70
36092;BME280;22147;52.388;13.390;2022-08-03T01:43:44;101079.66;;;16.62;90.10
36092;BME280;22147;52.388;13.390;2022-08-03T01:46:38;101073.66;;;16.63;89.97
36092;BME280;22147;52.388;13.390;2022-08-03T01:49:15;101068.91;;;16.64;89.78
36092;BME280;22147;52.388;13.390;2022-08-03T01:51:47;101083.91;;;16.72;89.54
36092;BME280;22147;52.388;13.390;2022-08-03T01:54:40;101072.69;;;16.72;90.28
36092;BME280;22147;52.388;13.390;2022-08-03T01:57:12;101074.31;;;16.73;91.04
36092;BME280;22147;52.388;13.390;2022-08-03T01:59:45;101077.03;;;16.69;90.30
36092;BME280;22147;52.388;13.390;2022-08-03T02:02:16;101068.97;;;16.67;90.14
36092;BME280;22147;52.388;13.390;2022-08-03T02:05:03;101068.50;;;16.65;89.80
36092;BME280;22147;52.388;13.390;2022-08-03T02:07:40;101072.41;;;16.61;88.97
36092;BME280;22147;52.388;13.390;2022-08-03T02:10:12;101070.34;;;16.58;90.33
36092;BME280;22147;52.388;13.390;2022-08-03T02:13:03;101080.00;;;16.60;89.02
36092;BME280;22147;52.388;13.390;2022-08-03T02:15:35;101076.47;;;16.63;89.50
36092;BME280;22147;52.388;13.390;2022-08-03T02:18:08;101079.81;;;16.69;89.63
36092;BME280;22147;52.388;13.390;2022-08-03T02:20:40;101069.81;;;16.68;88.52
36092;BME280;22147;52.388;13.390;2022-08-03T02:23:09;101065.09;;;16.72;89.36
36092;BME280;22147;52.388;13.390;2022-08-03T02:25:51;101074.31;;;16.73;90.80
36092;BME280;22147;52.388;13.390;2022-08-03T02:28:36;101075.75;;;16.66;90.88
36092;BME280;22147;52.388;13.390;2022-08-03T02:31:15;101077.31;;;16.64;89.29
36092;BME280;22147;52.388;13.390;2022-08-03T02:33:51;101075.03;;;16.69;89.48
36092;BME280;22147;52.388;13.390;2022-08-03T02:36:27;101079.19;;;16.76;88.93
36092;BME280;22147;52.388;13.390;2022-08-03T02:39:00;101069.38;;;16.82;88.55
36092;BME280;22147;52.388;13.390;2022-08-03T02:41:42;101072.63;;;16.84;89.31
36092;BME280;22147;52.388;13.390;2022-08-03T02:44:17;101077.06;;;16.85;91.02
36092;BME280;22147;52.388;13.390;2022-08-03T02:46:55;101075.06;;;16.85;89.91
36092;BME280;22147;52.388;13.390;2022-08-03T02:49:30;101072.25;;;16.85;90.54
36092;BME280;22147;52.388;13.390;2022-08-03T02:52:25;101081.38;;;16.82;89.48
36092;BME280;22147;52.388;13.390;2022-08-03T02:55:00;101068.88;;;16.80;90.13
36092;BME280;22147;52.388;13.390;2022-08-03T02:57:34;101083.25;;;16.78;88.63
36092;BME280;22147;52.388;13.390;2022-08-03T03:00:04;101076.16;;;16.81;88.86
36092;BME280;22147;52.388;13.390;2022-08-03T03:02:38;101078.97;;;16.81;89.57
36092;BME280;22147;52.388;13.390;2022-08-03T03:05:12;101076.75;;;16.74;89.15
36092;BME280;22147;52.388;13.390;2022-08-03T03:08:01;101077.47;;;16.71;87.65
36092;BME280;22147;52.388;13.390;2022-08-03T03:10:43;101081.94;;;16.72;87.99
36092;BME280;22147;52.388;13.390;2022-08-03T03:13:15;101083.53;;;16.73;87.42
36092;BME280;22147;52.388;13.390;2022-08-03T03:15:46;101079.53;;;16.74;88.08
36092;BME280;22147;52.388;13.390;2022-08-03T03:18:16;101083.09;;;16.71;87.66
36092;BME280;22147;52.388;13.390;2022-08-03T03:20:52;101082.19;;;16.67;88.33
36092;BME280;22147;52.388;13.390;2022-08-03T03:23:26;101081.72;;;16.65;88.06
36092;BME280;22147;52.388;13.390;2022-08-03T03:25:56;101082.47;;;16.62;87.92
36092;BME280;22147;52.388;13.390;2022-08-03T03:28:25;101081.16;;;16.59;88.07
36092;BME280;22147;52.388;13.390;2022-08-03T03:30:52;101083.97;;;16.59;87.59
36092;BME280;22147;52.388;13.390;2022-08-03T03:33:21;101080.72;;;16.57;87.38
36092;BME280;22147;52.388;13.390;2022-08-03T03:35:49;101081.56;;;16.58;87.17
36092;BME280;22147;52.388;13.390;2022-08-03T03:38:19;101080.72;;;16.57;87.49
36092;BME280;22147;52.388;13.390;2022-08-03T03:40:48;101081.91;;;16.56;87.65
36092;BME280;22147;52.388;13.390;2022-08-03T03:43:16;101085.06;;;16.55;88.15
36092;BME280;22147;52.388;13.390;2022-08-03T03:45:46;101083.44;;;16.54;88.63
36092;BME280;22147;52.388;13.390;2022-08-03T03:48:14;101086.16;;;16.50;88.46
36092;BME280;22147;52.388;13.390;2022-08-03T03:50:43;101082.06;;;16.47;88.93
36092;BME280;22147;52.388;13.390;2022-08-03T03:53:13;101087.22;;;16.45;88.84
36092;BME280;22147;52.388;13.390;2022-08-03T03:55:41;101082.78;;;16.44;89.26
36092;BME280;22147;52.388;13.390;2022-08-03T03:58:29;101090.84;;;16.46;88.94
36092;BME280;22147;52.388;13.390;2022-08-03T04:00:58;101075.66;;;16.47;89.58
36092;BME280;22147;52.388;13.390;2022-08-03T04:03:26;101080.19;;;16.52;90.19
36092;BME280;22147;52.388;13.390;2022-08-03T04:05:53;101083.09;;;16.55;89.75
36092;BME280;22147;52.388;13.390;2022-08-03T04:08:39;101076.75;;;16.58;89.68
36092;BME280;22147;52.388;13.390;2022-08-03T04:11:38;101082.06;;;16.63;89.39
36092;BME280;22147;52.388;13.390;2022-08-03T04:14:24;101082.28;;;16.71;89.50
36092;BME280;22147;52.388;13.390;2022-08-03T04:17:00;101086.00;;;16.75;88.96
36092;BME280;22147;52.388;13.390;2022-08-03T04:19:43;101082.22;;;16.83;89.62
36092;BME280;22147;52.388;13.390;2022-08-03T04:22:19;101082.41;;;16.90;89.02
36092;BME280;22147;52.388;13.390;2022-08-03T04:25:03;101079.75;;;16.97;89.43
36092;BME280;22147;52.388;13.390;2022-08-03T04:27:40;101082.75;;;17.04;88.84
36092;BME280;22147;52.388;13.390;2022-08-03T04:30:09;101085.25;;;17.09;89.63
36092;BME280;22147;52.388;13.390;2022-08-03T04:32:38;101089.44;;;17.16;89.16
36092;BME280;22147;52.388;13.390;2022-08-03T04:35:11;101096.75;;;17.20;88.62
36092;BME280;22147;52.388;13.390;2022-08-03T04:37:45;101094.94;;;17.28;88.85
36092;BME280;22147;52.388;13.390;2022-08-03T04:40:24;101094.56;;;17.29;88.87
36092;BME280;22147;52.388;13.390;2022-08-03T04:42:58;101086.88;;;17.26;88.88
36092;BME280;22147;52.388;13.390;2022-08-03T04:45:27;101105.72;;;17.26;90.03
36092;BME280;22147;52.388;13.390;2022-08-03T04:47:58;101097.03;;;17.15;93.26
36092;BME280;22147;52.388;13.390;2022-08-03T04:50:29;101108.06;;;17.08;92.66
36092;BME280;22147;52.388;13.390;2022-08-03T04:52:56;101111.63;;;17.05;92.73
36092;BME280;22147;52.388;13.390;2022-08-03T04:55:29;101106.81;;;17.05;92.90
36092;BME280;22147;52.388;13.390;2022-08-03T04:57:58;101103.34;;;17.12;92.95
36092;BME280;22147;52.388;13.390;2022-08-03T05:00:28;101105.16;;;17.20;92.89
36092;BME280;22147;52.388;13.390;2022-08-03T05:02:55;101093.28;;;17.27;92.00
36092;BME280;22147;52.388;13.390;2022-08-03T05:05:23;101103.50;;;17.35;90.79
36092;BME280;22147;52.388;13.390;2022-08-03T05:07:50;101102.13;;;17.45;90.80
36092;BME280;22147;52.388;13.390;2022-08-03T05:10:18;101102.69;;;17.50;89.60
36092;BME280;22147;52.388;13.390;2022-08-03T05:12:47;101099.66;;;17.59;89.27
36092;BME280;22147;52.388;13.390;2022-08-03T05:15:17;101103.88;;;17.69;88.39
36092;BME280;22147;52.388;13.390;2022-08-03T05:17:44;101106.47;;;17.78;86.29
36092;BME280;22147;52.388;13.390;2022-08-03T05:20:12;101105.91;;;17.88;87.24
36092;BME280;22147;52.388;13.390;2022-08-03T05:22:42;101105.31;;;17.98;85.53
36092;BME280;22147;52.388;13.390;2022-08-03T05:25:09;101105.63;;;18.13;84.41
36092;BME280;22147;52.388;13.390;2022-08-03T05:27:45;101107.31;;;18.17;84.53
36092;BME280;22147;52.388;13.390;2022-08-03T05:30:13;101101.19;;;18.31;81.82
36092;BME280;22147;52.388;13.390;2022-08-03T05:33:01;101113.63;;;18.53;81.85
36092;BME280;22147;52.388;13.390;2022-08-03T05:35:31;101107.16;;;18.72;81.05
36092;BME280;22147;52.388;13.390;2022-08-03T05:38:18;101113.59;;;18.96;75.30
36092;BME280;22147;52.388;13.390;2022-08-03T05:40:54;101114.41;;;19.19;74.90
36092;BME280;22147;52.388;13.390;2022-08-03T05:43:43;101113.97;;;19.44;69.93
36092;BME280;22147;52.388;13.390;2022-08-03T05:46:11;101115.94;;;19.66;68.61
36092;BME280;22147;52.388;13.390;2022-08-03T05:48:40;101118.28;;;19.91;68.72
36092;BME280;22147;52.388;13.390;2022-08-03T05:51:08;101115.34;;;20.14;66.22
36092;BME280;22147;52.388;13.390;2022-08-03T05:53:42;101121.22;;;20.36;66.14
36092;BME280;22147;52.388;13.390;2022-08-03T05:56:10;101113.88;;;20.61;64.18
36092;BME280;22147;52.388;13.390;2022-08-03T05:58:45;101122.25;;;20.91;64.02
36092;BME280;22147;52.388;13.390;2022-08-03T06:01:15;101119.16;;;21.11;62.73
36092;BME280;22147;52.388;13.390;2022-08-03T06:03:44;101120.94;;;21.33;60.83
36092;BME280;22147;52.388;13.390;2022-08-03T06:06:13;101124.75;;;21.55;58.45
36092;BME280;22147;52.388;13.390;2022-08-03T06:08:41;101129.34;;;21.82;58.46
36092;BME280;22147;52.388;13.390;2022-08-03T06:11:10;101124.56;;;21.89;53.33
36092;BME280;22147;52.388;13.390;2022-08-03T06:13:38;101128.69;;;22.10;57.66
36092;BME280;22147;52.388;13.390;2022-08-03T06:16:06;101121.03;;;22.14;52.75
36092;BME280;22147;52.388;13.390;2022-08-03T06:18:34;101124.34;;;22.34;54.32
36092;BME280;22147;52.388;13.390;2022-08-03T06:21:02;101126.44;;;22.62;58.33
36092;BME280;22147;52.388;13.390;2022-08-03T06:23:40;101116.78;;;22.77;51.44
36092;BME280;22147;52.388;13.390;2022-08-03T06:26:25;101120.84;;;23.12;52.86
36092;BME280;22147;52.388;13.390;2022-08-03T06:28:55;101116.34;;;23.36;52.72
36092;BME280;22147;52.388;13.390;2022-08-03T06:31:25;101112.66;;;23.68;55.03
36092;BME280;22147;52.388;13.390;2022-08-03T06:34:01;101115.84;;;23.95;50.90
36092;BME280;22147;52.388;13.390;2022-08-03T06:36:49;101111.75;;;24.04;51.57
36092;BME280;22147;52.388;13.390;2022-08-03T06:39:18;101115.31;;;24.26;51.11
36092;BME280;22147;52.388;13.390;2022-08-03T06:41:45;101118.44;;;24.46;49.71
36092;BME280;22147;52.388;13.390;2022-08-03T06:44:12;101117.47;;;24.74;51.02
36092;BME280;22147;52.388;13.390;2022-08-03T06:46:40;101120.19;;;24.92;46.56
36092;BME280;22147;52.388;13.390;2022-08-03T06:49:07;101112.75;;;25.09;46.76
36092;BME280;22147;52.388;13.390;2022-08-03T06:51:35;101110.69;;;25.09;46.91
36092;BME280;22147;52.388;13.390;2022-08-03T06:54:22;101113.06;;;25.18;47.07
36092;BME280;22147;52.388;13.390;2022-08-03T06:56:50;101109.72;;;25.30;47.13
36092;BME280;22147;52.388;13.390;2022-08-03T06:59:17;101112.16;;;25.70;49.17
36092;BME280;22147;52.388;13.390;2022-08-03T07:02:04;101114.72;;;25.95;45.02
36092;BME280;22147;52.388;13.390;2022-08-03T07:04:31;101112.22;;;26.00;44.13
36092;BME280;22147;52.388;13.390;2022-08-03T07:06:59;101111.66;;;26.13;41.33
36092;BME280;22147;52.388;13.390;2022-08-03T07:09:26;101113.97;;;26.22;42.05
36092;BME280;22147;52.388;13.390;2022-08-03T07:11:53;101121.31;;;26.23;43.18
36092;BME280;22147;52.388;13.390;2022-08-03T07:14:21;101111.38;;;26.34;43.55
36092;BME280;22147;52.388;13.390;2022-08-03T07:16:48;101121.09;;;26.37;41.87
36092;BME280;22147;52.388;13.390;2022-08-03T07:19:15;101115.56;;;26.53;41.54
36092;BME280;22147;52.388;13.390;2022-08-03T07:21:42;101114.69;;;26.60;40.46
36092;BME280;22147;52.388;13.390;2022-08-03T07:24:11;101107.59;;;26.72;39.71
36092;BME280;22147;52.388;13.390;2022-08-03T07:26:38;101103.41;;;26.80;39.06
36092;BME280;22147;52.388;13.390;2022-08-03T07:29:05;101109.94;;;26.77;39.45
36092;BME280;22147;52.388;13.390;2022-08-03T07:31:41;101110.31;;;26.52;39.59
36092;BME280;22147;52.388;13.390;2022-08-03T07:34:08;101107.50;;;27.02;41.09
36092;BME280;22147;52.388;13.390;2022-08-03T07:36:35;101110.63;;;27.35;40.12
36092;BME280;22147;52.388;13.390;2022-08-03T07:39:03;101116.06;;;27.26;39.39
36092;BME280;22147;52.388;13.390;2022-08-03T07:41:44;101113.38;;;27.63;37.64
36092;BME280;22147;52.388;13.390;2022-08-03T07:44:12;101125.59;;;27.63;39.82
36092;BME280;22147;52.388;13.390;2022-08-03T07:46:39;101113.28;;;27.66;41.75
36092;BME280;22147;52.388;13.390;2022-08-03T07:49:06;101114.63;;;27.81;40.32
36092;BME280;22147;52.388;13.390;2022-08-03T07:51:34;101114.34;;;27.56;40.11
36092;BME280;22147;52.388;13.390;2022-08-03T07:54:01;101109.38;;;27.80;37.27
36092;BME280;22147;52.388;13.390;2022-08-03T07:56:29;101116.25;;;28.22;39.36
36092;BME280;22147;52.388;13.390;2022-08-03T07:58:56;101117.00;;;28.63;39.15
36092;BME280;22147;52.388;13.390;2022-08-03T08:01:23;101106.91;;;28.02;38.09
36092;BME280;22147;52.388;13.390;2022-08-03T08:03:50;101100.50;;;27.74;39.09
36092;BME280;22147;52.388;13.390;2022-08-03T08:06:20;101110.72;;;28.15;38.40
36092;BME280;22147;52.388;13.390;2022-08-03T08:08:48;101106.91;;;28.02;38.73
36092;BME280;22147;52.388;13.390;2022-08-03T08:11:15;101106.44;;;28.23;37.46
36092;BME280;22147;52.388;13.390;2022-08-03T08:13:42;101108.50;;;28.59;39.37
36092;BME280;22147;52.388;13.390;2022-08-03T08:16:09;101111.47;;;28.56;37.36
36092;BME280;22147;52.388;13.390;2022-08-03T08:18:36;101116.38;;;28.35;36.05
36092;BME280;22147;52.388;13.390;2022-08-03T08:21:03;101119.91;;;28.59;38.84
36092;BME280;22147;52.388;13.390;2022-08-03T08:23:30;101109.78;;;28.91;37.59
36092;BME280;22147;52.388;13.390;2022-08-03T08:26:09;101103.09;;;29.14;37.54
36092;BME280;22147;52.388;13.390;2022-08-03T08:28:36;101113.22;;;29.19;35.55
36092;BME280;22147;52.388;13.390;2022-08-03T08:31:03;101107.81;;;28.88;35.15
36092;BME280;22147;52.388;13.390;2022-08-03T08:33:31;101108.94;;;29.11;37.57
36092;BME280;22147;52.388;13.390;2022-08-03T08:36:20;101111.19;;;28.99;38.67
36092;BME280;22147;52.388;13.390;2022-08-03T08:38:47;101104.97;;;29.05;38.05
36092;BME280;22147;52.388;13.390;2022-08-03T08:41:15;101102.09;;;29.21;36.31
36092;BME280;22147;52.388;13.390;2022-08-03T08:43:42;101101.72;;;29.35;36.81
36092;BME280;22147;52.388;13.390;2022-08-03T08:46:12;101109.34;;;29.55;34.21
36092;BME280;22147;52.388;13.390;2022-08-03T08:48:51;101105.06;;;29.63;34.27
36092;BME280;22147;52.388;13.390;2022-08-03T08:51:21;101107.31;;;29.10;34.22
36092;BME280;22147;52.388;13.390;2022-08-03T08:54:20;101101.97;;;29.57;33.85
36092;BME280;22147;52.388;13.390;2022-08-03T08:56:52;101110.28;;;29.52;34.57
36092;BME280;22147;52.388;13.390;2022-08-03T08:59:23;101103.94;;;29.44;32.19
36092;BME280;22147;52.388;13.390;2022-08-03T09:01:56;101103.88;;;29.77;33.76
36092;BME280;22147;52.388;13.390;2022-08-03T09:04:24;101104.16;;;29.82;32.29
36092;BME280;22147;52.388;13.390;2022-08-03T09:06:52;101097.91;;;30.26;33.26
36092;BME280;22147;52.388;13.390;2022-08-03T09:09:39;101097.84;;;30.30;31.60
36092;BME280;22147;52.388;13.390;2022-08-03T09:12:28;101097.97;;;30.64;33.37
36092;BME280;22147;52.388;13.390;2022-08-03T09:15:30;101090.13;;;30.27;30.74
36092;BME280;22147;52.388;13.390;2022-08-03T09:18:01;101092.47;;;30.32;31.63
36092;BME280;22147;52.388;13.390;2022-08-03T09:20:34;101088.00;;;30.56;31.55
36092;BME280;22147;52.388;13.390;2022-08-03T09:23:08;101083.75;;;29.80;32.30
36092;BME280;22147;52.388;13.390;2022-08-03T09:25:57;101081.66;;;30.23;32.52
36092;BME280;22147;52.388;13.390;2022-08-03T09:28:34;101089.50;;;30.61;31.10
36092;BME280;22147;52.388;13.390;2022-08-03T09:31:38;101077.06;;;30.13;33.29
36092;BME280;22147;52.388;13.390;2022-08-03T09:34:13;101089.22;;;30.17;31.12
36092;BME280;22147;52.388;13.390;2022-08-03T09:36:50;101090.41;;;30.32;30.50
36092;BME280;22147;52.388;13.390;2022-08-03T09:39:21;101081.00;;;30.57;32.96
36092;BME280;22147;52.388;13.390;2022-08-03T09:42:15;101091.66;;;30.95;31.02
36092;BME280;22147;52.388;13.390;2022-08-03T09:44:50;101086.81;;;30.28;29.80
36092;BME280;22147;52.388;13.390;2022-08-03T09:47:33;101090.63;;;29.83;29.80
36092;BME280;22147;52.388;13.390;2022-08-03T09:50:10;101077.56;;;30.37;30.36
36092;BME280;22147;52.388;13.390;2022-08-03T09:52:39;101079.38;;;30.69;29.20
36092;BME280;22147;52.388;13.390;2022-08-03T09:55:19;101086.81;;;30.15;30.42
36092;BME280;22147;52.388;13.390;2022-08-03T09:58:07;101078.94;;;29.77;31.28
36092;BME280;22147;52.388;13.390;2022-08-03T10:01:03;101071.72;;;30.40;30.41
36092;BME280;22147;52.388;13.390;2022-08-03T10:03:36;101079.50;;;30.78;31.91
36092;BME280;22147;52.388;13.390;2022-08-03T10:06:25;101076.06;;;30.71;30.32
36092;BME280;22147;52.388;13.390;2022-08-03T10:09:15;101076.06;;;30.58;29.82
36092;BME280;22147;52.388;13.390;2022-08-03T10:11:43;101063.09;;;30.79;29.92
36092;BME280;22147;52.388;13.390;2022-08-03T10:14:12;101052.78;;;30.81;29.73
36092;BME280;22147;52.388;13.390;2022-08-03T10:16:47;101061.97;;;30.76;29.93
36092;BME280;22147;52.388;13.390;2022-08-03T10:19:15;101052.81;;;30.43;30.81
36092;BME280;22147;52.388;13.390;2022-08-03T10:22:20;101055.22;;;30.70;29.91
36092;BME280;22147;52.388;13.390;2022-08-03T10:24:59;101057.25;;;30.82;29.52
36092;BME280;22147;52.388;13.390;2022-08-03T10:27:40;101056.00;;;30.96;30.92
36092;BME280;22147;52.388;13.390;2022-08-03T10:30:11;101057.94;;;31.34;30.93
36092;BME280;22147;52.388;13.390;2022-08-03T10:33:02;101045.56;;;31.59;31.83
36092;BME280;22147;52.388;13.390;2022-08-03T10:35:58;101053.59;;;31.30;30.43
36092;BME280;22147;52.388;13.390;2022-08-03T10:38:40;101048.66;;;31.30;29.53
36092;BME280;22147;52.388;13.390;2022-08-03T10:41:19;101047.44;;;31.53;29.62
36092;BME280;22147;52.388;13.390;2022-08-03T10:44:08;101040.28;;;31.58;27.87
36092;BME280;22147;52.388;13.390;2022-08-03T10:46:39;101040.88;;;31.75;28.82
36092;BME280;22147;52.388;13.390;2022-08-03T10:49:16;101041.19;;;30.98;28.35
36092;BME280;22147;52.388;13.390;2022-08-03T10:52:02;101036.50;;;30.78;31.28
36092;BME280;22147;52.388;13.390;2022-08-03T10:54:50;101035.34;;;31.01;31.23
36092;BME280;22147;52.388;13.390;2022-08-03T11:00:26;101030.31;;;31.28;29.13
36092;BME280;22147;52.388;13.390;2022-08-03T11:03:10;101033.25;;;31.37;29.27
36092;BME280;22147;52.388;13.390;2022-08-03T11:05:45;101025.31;;;31.41;29.95
36092;BME280;22147;52.388;13.390;2022-08-03T11:08:31;101017.41;;;31.45;32.58
36092;BME280;22147;52.388;13.390;2022-08-03T11:17:07;101030.41;;;31.02;31.20
36092;BME280;22147;52.388;13.390;2022-08-03T11:19:49;101018.53;;;30.78;32.04
36092;BME280;22147;52.388;13.390;2022-08-03T11:22:24;101018.97;;;30.76;30.93
36092;BME280;22147;52.388;13.390;2022-08-03T11:27:33;101018.81;;;31.06;30.04
36092;BME280;22147;52.388;13.390;2022-08-03T11:35:26;101010.50;;;31.20;30.73
36092;BME280;22147;52.388;13.390;2022-08-03T11:40:49;101017.25;;;31.27;31.81
36092;BME280;22147;52.388;13.390;2022-08-03T11:45:57;101015.94;;;31.06;30.13
36092;BME280;22147;52.388;13.390;2022-08-03T11:48:41;101004.19;;;30.91;29.94
36092;BME280;22147;52.388;13.390;2022-08-03T11:51:28;101004.31;;;30.87;30.55
36092;BME280;22147;52.388;13.390;2022-08-03T11:54:01;101005.81;;;30.66;32.52
36092;BME280;22147;52.388;13.390;2022-08-03T11:56:50;101014.00;;;31.02;31.21
36092;BME280;22147;52.388;13.390;2022-08-03T11:59:31;101005.63;;;31.30;30.49
36092;BME280;22147;52.388;13.390;2022-08-03T12:02:11;100996.00;;;31.24;31.46
36092;BME280;22147;52.388;13.390;2022-08-03T12:07:18;100987.97;;;31.54;30.45
36092;BME280;22147;52.388;13.390;2022-08-03T12:10:14;100989.47;;;31.58;30.95
36092;BME280;22147;52.388;13.390;2022-08-03T12:12:41;100990.66;;;31.48;30.95
36092;BME280;22147;52.388;13.390;2022-08-03T12:15:12;100990.50;;;31.52;30.71
36092;BME280;22147;52.388;13.390;2022-08-03T12:17:40;100985.25;;;31.50;29.52
36092;BME280;22147;52.388;13.390;2022-08-03T12:20:11;100986.75;;;31.42;29.96
36092;BME280;22147;52.388;13.390;2022-08-03T12:23:06;100987.06;;;31.22;30.24
36092;BME280;22147;52.388;13.390;2022-08-03T12:25:36;100986.22;;;31.12;29.79
36092;BME280;22147;52.388;13.390;2022-08-03T12:28:18;100978.13;;;31.20;29.54
36092;BME280;22147;52.388;13.390;2022-08-03T12:31:07;100983.28;;;31.25;31.16
36092;BME280;22147;52.388;13.390;2022-08-03T12:34:01;100969.16;;;31.31;30.34
36092;BME280;22147;52.388;13.390;2022-08-03T12:36:34;100969.34;;;31.36;30.10
36092;BME280;22147;52.388;13.390;2022-08-03T12:39:07;100972.03;;;31.31;29.91
36092;BME280;22147;52.388;13.390;2022-08-03T12:41:39;100972.16;;;31.27;29.68
36092;BME280;22147;52.388;13.390;2022-08-03T12:44:08;100974.00;;;31.21;30.82
36092;BME280;22147;52.388;13.390;2022-08-03T12:46:40;100969.94;;;31.31;30.18
36092;BME280;22147;52.388;13.390;2022-08-03T12:49:15;100964.88;;;31.35;30.05
36092;BME280;22147;52.388;13.390;2022-08-03T12:54:21;100961.59;;;31.68;30.58
36092;BME280;22147;52.388;13.390;2022-08-03T12:57:01;100955.97;;;31.87;29.19
36092;BME280;22147;52.388;13.390;2022-08-03T12:59:37;100955.66;;;31.94;28.43
36092;BME280;22147;52.388;13.390;2022-08-03T13:02:25;100952.63;;;31.88;29.48
36092;BME280;22147;52.388;13.390;2022-08-03T13:04:53;100959.03;;;31.92;29.65
36092;BME280;22147;52.388;13.390;2022-08-03T13:07:21;100955.75;;;31.81;28.87
36092;BME280;22147;52.388;13.390;2022-08-03T13:09:55;100952.72;;;32.07;29.45
36092;BME280;22147;52.388;13.390;2022-08-03T13:12:27;100954.34;;;32.17;28.56
36092;BME280;22147;52.388;13.390;2022-08-03T13:14:59;100939.00;;;32.11;28.09
36092;BME280;22147;52.388;13.390;2022-08-03T13:17:27;100951.72;;;32.00;29.68
36092;BME280;22147;52.388;13.390;2022-08-03T13:19:55;100945.78;;;31.95;29.56
36092;BME280;22147;52.388;13.390;2022-08-03T13:22:26;100946.97;;;32.07;28.53
36092;BME280;22147;52.388;13.390;2022-08-03T13:24:56;100932.94;;;32.09;29.18
36092;BME280;22147;52.388;13.390;2022-08-03T13:27:25;100950.06;;;32.21;28.18
36092;BME280;22147;52.388;13.390;2022-08-03T13:30:14;100948.19;;;31.96;27.66
36092;BME280;22147;52.388;13.390;2022-08-03T13:32:55;100946.63;;;32.04;28.44
36092;BME280;22147;52.388;13.390;2022-08-03T13:35:24;100949.41;;;32.17;28.46
36092;BME280;22147;52.388;13.390;2022-08-03T13:37:51;100941.47;;;32.31;28.00
36092;BME280;22147;52.388;13.390;2022-08-03T13:40:19;100929.59;;;32.60;28.00
36092;BME280;22147;52.388;13.390;2022-08-03T13:42:55;100934.41;;;32.81;28.75
36092;BME280;22147;52.388;13.390;2022-08-03T13:45:23;100933.91;;;33.01;27.58
36092;BME280;22147;52.388;13.390;2022-08-03T13:47:50;100926.44;;;33.13;27.87
36092;BME280;22147;52.388;13.390;2022-08-03T13:50:17;100921.25;;;33.36;28.10
36092;BME280;22147;52.388;13.390;2022-08-03T13:52:44;100929.09;;;33.35;28.02
36092;BME280;22147;52.388;13.390;2022-08-03T13:55:14;100926.84;;;33.39;29.56
36092;BME280;22147;52.388;13.390;2022-08-03T13:57:41;100924.97;;;33.36;26.92
36092;BME280;22147;52.388;13.390;2022-08-03T14:00:28;100922.00;;;33.55;27.22
36092;BME280;22147;52.388;13.390;2022-08-03T14:03:01;100914.50;;;33.66;26.95